Aviation Digital Data Service (ADDS)

Output produced by METARs form (0921 UTC 30 March 2015)
found at http://aviationweather.gov/adds/metars/
 
KBVI 300524Z 3006/3106 23012G20KT P6SM SCT025 BKN035 
     TEMPO 3006/3008 6SM -SHRASN 
     FM301000 25012G22KT P6SM BKN025 
     FM301300 27012G22KT P6SM SCT035 
     FM310000 26005KT P6SM BKN050 AMD NOT SKED